createdAt,value
2023-04-22T07:02:16.349Z,18.13
2023-04-22T07:06:19.663Z,18.13
2023-04-22T07:10:22.845Z,18.10
2023-04-22T07:14:27.629Z,18.08
2023-04-22T07:18:31.016Z,18.03
2023-04-22T07:22:34.261Z,18.00
2023-04-22T07:26:38.457Z,18.13
2023-04-22T07:30:41.570Z,18.34
2023-04-22T07:34:45.048Z,18.50
2023-04-22T07:38:48.403Z,18.60
2023-04-22T07:42:51.952Z,18.70
2023-04-22T07:46:56.557Z,18.75
2023-04-22T07:51:00.121Z,18.78
2023-04-22T07:55:06.335Z,18.70
2023-04-22T07:59:12.507Z,18.67
2023-04-22T08:19:56.814Z,18.81
2023-04-22T08:23:59.682Z,18.97
2023-04-22T08:28:02.756Z,19.15
2023-04-22T08:32:05.944Z,19.22
2023-04-22T08:36:11.911Z,19.23
2023-04-22T08:40:15.506Z,19.16
2023-04-22T08:44:22.866Z,19.21
2023-04-22T08:48:26.999Z,19.27
2023-04-22T08:52:31.933Z,19.30
2023-04-22T08:56:37.663Z,19.36
2023-04-22T09:00:44.855Z,19.49
2023-04-22T09:04:50.943Z,19.67
2023-04-22T09:08:55.869Z,19.74
2023-04-22T09:13:02.039Z,19.84
2023-04-22T09:17:05.606Z,19.90
2023-04-22T09:21:09.167Z,19.92
2023-04-22T09:25:17.648Z,19.99
2023-04-22T09:29:21.381Z,20.09
2023-04-22T09:33:26.842Z,20.12
2023-04-22T09:37:42.802Z,20.03
2023-04-22T09:41:58.979Z,19.99
2023-04-22T09:46:03.555Z,20.07
2023-04-22T09:50:10.564Z,20.14
2023-04-22T09:59:01.697Z,20.33
2023-04-22T10:03:06.706Z,20.42
2023-04-22T10:07:10.852Z,20.52
2023-04-22T10:11:13.879Z,20.54
2023-04-22T10:15:16.978Z,20.63
2023-04-22T10:19:25.139Z,20.67
2023-04-22T10:23:32.963Z,20.74
2023-04-22T10:27:36.334Z,20.72
2023-04-22T10:31:39.967Z,20.67
2023-04-22T10:36:15.219Z,20.73
2023-04-22T10:40:18.951Z,20.82
2023-04-22T10:44:23.214Z,20.80
2023-04-22T10:48:49.147Z,20.81
2023-04-22T10:53:04.129Z,20.79
2023-04-22T10:57:08.092Z,20.82
2023-04-22T11:01:17.545Z,20.85
2023-04-22T11:05:26.010Z,20.78
2023-04-22T11:09:29.480Z,20.74
2023-04-22T11:13:32.534Z,20.82
2023-04-22T11:17:36.752Z,20.74
2023-04-22T11:21:40.556Z,20.77
2023-04-22T11:25:43.725Z,20.80
2023-04-22T11:30:00.321Z,20.93
2023-04-22T11:34:03.301Z,21.10
2023-04-22T11:38:06.504Z,21.20
2023-04-22T11:42:09.466Z,21.19
2023-04-22T11:46:12.507Z,21.34
2023-04-22T11:50:16.032Z,21.37
2023-04-22T11:54:31.205Z,21.42
2023-04-22T11:58:38.629Z,21.45
2023-04-22T12:02:42.281Z,21.58
2023-04-22T12:06:47.112Z,21.64
2023-04-22T12:10:53.348Z,21.61
2023-04-22T12:14:58.353Z,21.65
2023-04-22T12:19:03.789Z,21.64
2023-04-22T12:23:13.516Z,21.59
2023-04-22T12:27:16.769Z,21.53
2023-04-22T12:31:20.230Z,21.65
2023-04-22T12:35:23.348Z,21.73
2023-04-22T12:39:26.542Z,21.80
2023-04-22T12:43:29.635Z,21.87
2023-04-22T12:47:33.362Z,21.74
2023-04-22T12:51:36.359Z,21.73
2023-04-22T12:55:39.625Z,21.83
2023-04-22T12:59:42.749Z,21.89
2023-04-22T13:03:46.027Z,21.92
2023-04-22T13:07:59.647Z,21.98
2023-04-22T13:12:09.505Z,21.94
2023-04-22T13:16:12.577Z,21.91
2023-04-22T13:20:16.585Z,22.01
2023-04-22T13:24:20.013Z,22.02
2023-04-22T13:28:23.083Z,22.01
2023-04-22T13:32:26.193Z,21.96
2023-04-22T13:36:29.342Z,21.87
2023-04-22T13:40:32.580Z,21.94
2023-04-22T13:44:36.288Z,21.86
2023-04-22T13:48:39.356Z,21.89
2023-04-22T13:52:42.678Z,21.94
2023-04-22T13:56:45.823Z,21.91
2023-04-22T14:00:49.070Z,21.91
2023-04-22T14:04:52.311Z,21.90
2023-04-22T14:08:55.567Z,21.86
2023-04-22T14:12:58.581Z,21.89
2023-04-22T14:17:01.662Z,21.92
2023-04-22T14:21:07.196Z,21.93
2023-04-22T14:25:10.464Z,21.95
2023-04-22T14:29:14.161Z,21.91
2023-04-22T14:33:17.427Z,21.97
2023-04-22T14:37:21.658Z,21.97
2023-04-22T14:41:25.330Z,21.98
2023-04-22T14:45:30.338Z,21.96
2023-04-22T14:49:33.398Z,21.86
2023-04-22T14:53:37.299Z,21.89
2023-04-22T14:57:40.301Z,21.95
2023-04-22T15:01:43.302Z,22.00
2023-04-22T15:05:49.420Z,22.02
2023-04-22T15:09:52.898Z,21.96
2023-04-22T15:13:55.865Z,21.98
2023-04-22T15:17:59.095Z,21.90
2023-04-22T15:22:02.391Z,21.88
2023-04-22T15:26:05.475Z,21.85
2023-04-22T15:30:10.926Z,21.75
2023-04-22T15:34:14.934Z,21.65
2023-04-22T15:38:17.924Z,21.66
2023-04-22T15:42:20.886Z,21.62
2023-04-22T15:46:23.934Z,21.64
2023-04-22T15:50:27.277Z,21.56
2023-04-22T15:54:30.456Z,21.50
2023-04-22T15:58:34.710Z,21.44
2023-04-22T16:02:38.249Z,21.40
2023-04-22T16:06:41.563Z,21.36
2023-04-22T16:10:44.903Z,21.22
2023-04-22T16:14:48.086Z,21.16
2023-04-22T16:18:51.178Z,21.10
2023-04-22T16:22:54.036Z,21.06
2023-04-22T16:26:56.986Z,20.99
2023-04-22T16:31:00.685Z,20.93
2023-04-22T16:35:04.684Z,20.84
2023-04-22T16:39:07.739Z,20.77
2023-04-22T16:43:13.006Z,20.60
2023-04-22T16:47:16.037Z,20.40
2023-04-22T16:51:18.977Z,20.22
2023-04-22T16:55:21.859Z,20.03
2023-04-22T16:59:24.795Z,19.81
2023-04-22T17:03:28.306Z,19.58
2023-04-22T17:07:31.491Z,19.33
2023-04-22T17:11:34.418Z,19.10
2023-04-22T17:15:37.299Z,18.86
2023-04-22T17:19:40.431Z,18.69
2023-04-22T17:23:43.624Z,18.51
2023-04-22T17:27:46.653Z,18.32
2023-04-22T17:31:50.739Z,18.08
2023-04-22T17:35:53.704Z,17.82
2023-04-22T17:39:56.605Z,17.55
2023-04-22T17:43:59.650Z,17.29
2023-04-22T17:48:03.041Z,17.09
2023-04-22T17:52:07.140Z,16.86
2023-04-22T17:56:10.288Z,16.61
2023-04-22T18:00:18.142Z,16.43
2023-04-22T18:04:21.262Z,16.25
2023-04-22T18:08:24.371Z,16.04
2023-04-22T18:12:30.675Z,15.76
2023-04-22T18:16:34.109Z,15.43
2023-04-22T18:20:37.297Z,15.25
2023-04-22T18:24:40.892Z,15.08
2023-04-22T18:28:44.670Z,14.91
2023-04-22T18:32:48.547Z,14.79
2023-04-22T18:36:51.797Z,14.69
2023-04-22T18:40:55.470Z,14.56
2023-04-22T18:44:58.438Z,14.31
2023-04-22T18:49:01.403Z,14.18
2023-04-22T18:53:04.842Z,14.09
2023-04-22T18:57:07.953Z,13.92
2023-04-22T19:01:11.403Z,13.80
2023-04-22T19:05:14.789Z,13.69
2023-04-22T19:09:19.471Z,13.55
2023-04-22T19:13:29.603Z,13.45
2023-04-22T19:17:34.756Z,13.34
2023-04-22T19:21:39.228Z,13.26
2023-04-22T19:25:42.696Z,13.22
2023-04-22T19:29:51.300Z,13.21
2023-04-22T19:33:54.230Z,13.03
2023-04-22T19:37:57.133Z,12.84
2023-04-22T19:42:03.698Z,12.67
2023-04-22T19:46:07.416Z,12.41
2023-04-22T19:50:11.302Z,12.10
2023-04-22T19:54:16.170Z,11.95
2023-04-22T19:58:20.138Z,11.98
2023-04-22T20:02:23.930Z,12.07
2023-04-22T20:06:28.945Z,12.12
2023-04-22T20:10:32.448Z,12.16
2023-04-22T20:14:36.235Z,12.12
2023-04-22T20:18:39.490Z,12.13
2023-04-22T20:22:44.021Z,12.04
2023-04-22T20:26:50.665Z,11.96
2023-04-22T20:30:53.861Z,11.95
2023-04-22T20:34:57.225Z,11.96
2023-04-22T20:39:05.329Z,11.94
2023-04-22T20:43:08.879Z,11.85
2023-04-22T20:47:13.889Z,11.75
2023-04-22T20:51:17.299Z,11.63
2023-04-22T20:55:21.859Z,11.54
2023-04-22T20:59:25.065Z,11.44
2023-04-22T21:03:28.995Z,11.39
2023-04-22T21:07:34.200Z,11.39
2023-04-22T21:11:38.780Z,11.33
2023-04-22T21:15:48.465Z,11.31
2023-04-22T21:19:56.874Z,11.34
2023-04-22T21:24:02.257Z,11.27
2023-04-22T21:28:05.921Z,11.16
2023-04-22T21:32:10.032Z,11.07
2023-04-22T21:36:13.774Z,10.96
2023-04-22T21:40:17.112Z,10.84
2023-04-22T21:44:20.327Z,10.78
2023-04-22T21:48:23.504Z,10.72
2023-04-22T21:52:27.200Z,10.71
2023-04-22T21:56:34.202Z,10.72
2023-04-22T22:00:38.860Z,10.79
2023-04-22T22:04:42.607Z,10.82
2023-04-22T22:08:46.980Z,10.83
2023-04-22T22:12:51.058Z,10.84
2023-04-22T22:16:59.174Z,10.86
2023-04-22T22:21:02.498Z,10.78
2023-04-22T22:25:07.874Z,10.69
2023-04-22T22:29:16.422Z,10.52
2023-04-22T22:33:19.640Z,10.40
2023-04-22T22:37:23.446Z,10.30
2023-04-22T22:41:26.714Z,10.22
2023-04-22T22:45:30.438Z,10.13
2023-04-22T22:49:34.069Z,10.12
2023-04-22T22:53:37.661Z,10.12
2023-04-22T22:57:41.240Z,10.12
2023-04-22T23:01:44.695Z,10.09
2023-04-22T23:05:50.895Z,9.97
2023-04-22T23:09:54.046Z,9.84
2023-04-22T23:13:58.721Z,9.75
2023-04-22T23:18:02.149Z,9.71
2023-04-22T23:22:07.408Z,9.69
2023-04-22T23:26:11.528Z,9.72
2023-04-22T23:30:15.368Z,9.72
2023-04-22T23:34:22.763Z,9.70
2023-04-22T23:38:25.984Z,9.69
2023-04-22T23:42:29.369Z,9.65
2023-04-22T23:46:32.737Z,9.56
2023-04-22T23:50:35.985Z,9.46
2023-04-22T23:54:40.409Z,9.40
2023-04-22T23:58:44.410Z,9.40
